Time;durP1;ratioP1;P1;durP2;ratioP2;P2;SDS_P1;SDS_P2;PMS_P1;PMS_P2;Temp;Humidity;BMP_temperature;BMP_pressure;BME280_temperature;BME280_humidity;BME280_pressure;Samples;Min_cycle;Max_cycle;Signal;HPM_P1;HPM_P2
2023/04/30 00:02:22;;;;;;;;;;;13.80;91.70;;;;;;5006684;28;19929;-69
2023/04/30 00:04:49;;;;;;;;;;;13.80;91.70;;;;;;5014121;28;20003;-69
2023/04/30 00:07:15;;;;;;;;;;;13.70;91.80;;;;;;5013717;28;19929;-70
2023/04/30 00:09:42;;;;;;;;;;;13.70;91.80;;;;;;5012806;28;19933;-70
2023/04/30 00:12:08;;;;;;;;;;;13.70;91.80;;;;;;5007504;28;19936;-69
2023/04/30 00:14:36;;;;;;;;;;;13.70;91.90;;;;;;5010842;28;19977;-68
2023/04/30 00:17:03;;;;;;;;;;;13.70;91.90;;;;;;5004239;28;19929;-69
2023/04/30 00:19:29;;;;;;;;;;;13.70;91.90;;;;;;5005296;28;19935;-69
2023/04/30 00:21:56;;;;;;;;;;;13.70;91.90;;;;;;5005804;28;19937;-70
2023/04/30 00:24:22;;;;;;;;;;;13.60;91.90;;;;;;5009184;28;20655;-69
2023/04/30 00:26:49;;;;;;;;;;;13.60;91.90;;;;;;5003246;28;20016;-70
2023/04/30 00:29:15;;;;;;;;;;;13.60;91.90;;;;;;5007369;28;19930;-69
2023/04/30 00:31:43;;;;;;;;;;;13.60;92.00;;;;;;5005828;28;19992;-69
2023/04/30 00:34:10;;;;;;;;;;;13.60;92.00;;;;;;5004941;28;19933;-70
2023/04/30 00:36:36;;;;;;;;;;;13.60;92.00;;;;;;5004185;28;19937;-69
2023/04/30 00:39:03;;;;;;;;;;;13.60;92.00;;;;;;5011312;28;20387;-69
2023/04/30 00:41:30;;;;;;;;;;;13.60;92.00;;;;;;5009430;28;19929;-69
2023/04/30 00:43:56;;;;;;;;;;;13.60;92.00;;;;;;5011082;28;19940;-70
2023/04/30 00:46:23;;;;;;;;;;;13.60;92.10;;;;;;5011206;28;19926;-69
2023/04/30 00:48:52;;;;;;;;;;;13.60;92.10;;;;;;5005186;28;21315;-69
2023/04/30 00:51:19;;;;;;;;;;;13.60;92.10;;;;;;5009077;28;19925;-69
2023/04/30 00:53:46;;;;;;;;;;;13.50;92.10;;;;;;5009040;28;20474;-68
2023/04/30 00:56:14;;;;;;;;;;;13.50;92.50;;;;;;5010369;28;20631;-70
2023/04/30 00:58:41;;;;;;;;;;;13.50;92.10;;;;;;5005892;28;19929;-69
2023/04/30 01:01:08;;;;;;;;;;;13.50;92.20;;;;;;5005399;28;19929;-70
2023/04/30 01:03:35;;;;;;;;;;;13.50;92.20;;;;;;5001593;28;19933;-70
2023/04/30 01:06:03;;;;;;;;;;;13.50;92.20;;;;;;5003933;28;19955;-69
2023/04/30 01:08:30;;;;;;;;;;;13.50;92.20;;;;;;5000494;28;19960;-69
2023/04/30 01:11:05;;;;;;;;;;;13.50;92.20;;;;;;5004724;28;19976;-69
2023/04/30 01:13:47;;;;;;;;;;;13.40;92.20;;;;;;5002269;28;20007;-69
2023/04/30 01:16:16;;;;;;;;;;;13.40;92.20;;;;;;5004968;28;19939;-69
2023/04/30 01:18:45;;;;;;;;;;;13.40;92.30;;;;;;5003449;28;19926;-69
2023/04/30 01:21:15;;;;;;;;;;;13.40;92.30;;;;;;5002886;28;20487;-69
2023/04/30 01:23:49;;;;;;;;;;;13.40;92.30;;;;;;5001720;28;19929;-69
2023/04/30 01:26:20;;;;;;;;;;;13.40;92.30;;;;;;5002897;28;19934;-69
2023/04/30 01:28:49;;;;;;;;;;;13.40;92.30;;;;;;4999930;28;19929;-69
2023/04/30 01:31:17;;;;;;;;;;;13.40;92.40;;;;;;5003486;28;20023;-70
2023/04/30 01:33:44;;;;;;;;;;;13.30;92.40;;;;;;5003394;28;19976;-69
2023/04/30 01:36:21;;;;;;;;;;;13.40;92.40;;;;;;5000732;28;19999;-69
2023/04/30 01:38:56;;;;;;;;;;;13.40;92.40;;;;;;5003083;28;19988;-70
2023/04/30 01:41:28;;;;;;;;;;;13.30;92.40;;;;;;4995593;28;20039;-70
2023/04/30 01:44:02;;;;;;;;;;;13.30;92.70;;;;;;5001767;28;19933;-69
2023/04/30 01:46:29;;;;;;;;;;;13.30;92.40;;;;;;5001991;28;20089;-69
2023/04/30 01:49:02;;;;;;;;;;;13.30;92.40;;;;;;4999883;28;20007;-70
2023/04/30 01:51:32;;;;;;;;;;;13.30;92.40;;;;;;5002941;28;19933;-70
2023/04/30 01:54:03;;;;;;;;;;;13.30;92.40;;;;;;5002891;28;19929;-70
2023/04/30 01:56:32;;;;;;;;;;;13.30;92.40;;;;;;5002796;28;20003;-69
2023/04/30 01:59:00;;;;;;;;;;;13.20;92.40;;;;;;5004117;28;19929;-69
2023/04/30 02:01:27;;;;;;;;;;;13.20;92.40;;;;;;4999070;28;19955;-70
2023/04/30 02:03:54;;;;;;;;;;;13.20;92.50;;;;;;5001813;28;19930;-69
2023/04/30 02:06:21;;;;;;;;;;;13.20;92.50;;;;;;5002854;28;19991;-69
2023/04/30 02:08:47;;;;;;;;;;;13.20;92.50;;;;;;5001181;28;19933;-69
2023/04/30 02:11:14;;;;;;;;;;;13.20;92.50;;;;;;5004062;28;19929;-69
2023/04/30 02:13:40;;;;;;;;;;;13.20;92.50;;;;;;5001595;28;19930;-69
2023/04/30 02:16:08;;;;;;;;;;;13.20;92.50;;;;;;5002848;28;20597;-69
2023/04/30 02:18:35;;;;;;;;;;;13.20;92.60;;;;;;4998531;28;19933;-69
2023/04/30 02:21:01;;;;;;;;;;;13.20;92.60;;;;;;4999778;28;19976;-69
2023/04/30 02:23:28;;;;;;;;;;;13.10;92.60;;;;;;5005606;28;20462;-69
2023/04/30 02:25:54;;;;;;;;;;;13.10;92.60;;;;;;5000292;28;20311;-69
2023/04/30 02:28:21;;;;;;;;;;;13.10;92.90;;;;;;4998405;28;19956;-69
2023/04/30 02:30:47;;;;;;;;;;;13.10;92.60;;;;;;5001058;28;20058;-69
2023/04/30 02:33:15;;;;;;;;;;;13.10;92.60;;;;;;4999409;28;20671;-69
2023/04/30 02:35:42;;;;;;;;;;;13.10;92.60;;;;;;5003072;28;20371;-69
2023/04/30 02:38:08;;;;;;;;;;;13.10;92.60;;;;;;4998853;28;19929;-69
2023/04/30 02:40:35;;;;;;;;;;;13.00;92.60;;;;;;5003659;28;20354;-70
2023/04/30 02:43:01;;;;;;;;;;;13.00;92.60;;;;;;5000953;28;19980;-69
2023/04/30 02:45:28;;;;;;;;;;;13.00;92.60;;;;;;5003641;28;19937;-70
2023/04/30 02:47:54;;;;;;;;;;;13.00;92.70;;;;;;5000677;28;19947;-68
2023/04/30 02:50:22;;;;;;;;;;;13.00;92.70;;;;;;5005663;28;20557;-69
2023/04/30 02:52:49;;;;;;;;;;;13.00;92.70;;;;;;5004891;28;19933;-69
2023/04/30 02:55:16;;;;;;;;;;;13.00;92.70;;;;;;5001592;28;19933;-69
2023/04/30 02:57:42;;;;;;;;;;;13.00;92.70;;;;;;4994076;28;20308;-69
2023/04/30 03:00:09;;;;;;;;;;;13.00;92.70;;;;;;5008525;28;19929;-69
2023/04/30 03:02:36;;;;;;;;;;;13.00;92.70;;;;;;4996170;28;20004;-69
2023/04/30 03:05:03;;;;;;;;;;;13.00;92.80;;;;;;4999395;28;19977;-69
2023/04/30 03:07:31;;;;;;;;;;;13.00;92.70;;;;;;4995194;28;20359;-70
2023/04/30 03:09:57;;;;;;;;;;;13.00;92.70;;;;;;5000291;28;19937;-69
2023/04/30 03:12:24;;;;;;;;;;;12.90;92.70;;;;;;4996908;28;19937;-69
2023/04/30 03:14:51;;;;;;;;;;;12.90;92.70;;;;;;5002512;28;19930;-69
2023/04/30 03:17:17;;;;;;;;;;;12.90;92.80;;;;;;4999171;28;19985;-69
2023/04/30 03:19:44;;;;;;;;;;;12.90;92.80;;;;;;5000339;28;19933;-69
2023/04/30 03:22:10;;;;;;;;;;;12.90;92.80;;;;;;4998009;28;19995;-69
2023/04/30 03:24:38;;;;;;;;;;;12.90;92.80;;;;;;5002714;28;20294;-69
2023/04/30 03:27:05;;;;;;;;;;;12.90;92.80;;;;;;4997813;28;20639;-69
2023/04/30 03:29:31;;;;;;;;;;;12.90;92.80;;;;;;4999609;28;19933;-70
2023/04/30 03:31:58;;;;;;;;;;;12.90;92.90;;;;;;5006572;28;20359;-69
2023/04/30 03:34:24;;;;;;;;;;;12.90;92.90;;;;;;5000674;28;19933;-69
2023/04/30 03:36:51;;;;;;;;;;;12.80;92.80;;;;;;5000673;28;19980;-69
2023/04/30 03:39:17;;;;;;;;;;;12.80;92.90;;;;;;4998707;28;20557;-69
2023/04/30 03:41:45;;;;;;;;;;;12.90;92.90;;;;;;5000223;28;19930;-69
2023/04/30 03:44:14;;;;;;;;;;;12.80;92.90;;;;;;5003262;28;19933;-69
2023/04/30 03:46:41;;;;;;;;;;;12.80;92.90;;;;;;5000493;28;19984;-69
2023/04/30 03:49:07;;;;;;;;;;;12.80;92.90;;;;;;5001105;28;19940;-69
2023/04/30 03:51:38;;;;;;;;;;;12.80;92.90;;;;;;4998683;28;19991;-69
2023/04/30 03:54:05;;;;;;;;;;;12.80;92.90;;;;;;4997565;28;19936;-69
2023/04/30 03:56:31;;;;;;;;;;;12.80;93.00;;;;;;5001070;28;19937;-70
2023/04/30 03:58:59;;;;;;;;;;;12.70;92.90;;;;;;4999686;28;19983;-69
2023/04/30 04:01:26;;;;;;;;;;;12.70;93.00;;;;;;5002033;28;19929;-69
2023/04/30 04:03:53;;;;;;;;;;;12.70;93.00;;;;;;4999655;28;20210;-69
2023/04/30 04:06:20;;;;;;;;;;;12.70;93.00;;;;;;5002224;28;19937;-69
2023/04/30 04:08:46;;;;;;;;;;;12.70;93.00;;;;;;5004902;28;19941;-69
2023/04/30 04:11:13;;;;;;;;;;;12.70;93.00;;;;;;4999171;28;19976;-68
2023/04/30 04:13:39;;;;;;;;;;;12.70;93.00;;;;;;4999465;28;19983;-69
2023/04/30 04:16:08;;;;;;;;;;;12.70;93.00;;;;;;5000459;28;19996;-70
2023/04/30 04:18:35;;;;;;;;;;;12.70;93.00;;;;;;5003584;28;19999;-69
2023/04/30 04:21:01;;;;;;;;;;;12.60;93.00;;;;;;5003007;28;19979;-69
2023/04/30 04:23:28;;;;;;;;;;;12.70;93.00;;;;;;5002712;28;19987;-69
2023/04/30 04:25:56;;;;;;;;;;;12.60;93.00;;;;;;5000236;28;20074;-69
2023/04/30 04:28:22;;;;;;;;;;;12.60;93.00;;;;;;4998376;28;19937;-69
2023/04/30 04:30:49;;;;;;;;;;;12.60;93.00;;;;;;4997995;28;19937;-69
2023/04/30 04:33:17;;;;;;;;;;;12.60;93.00;;;;;;5005286;28;19987;-70
2023/04/30 04:35:43;;;;;;;;;;;12.60;93.00;;;;;;5000944;28;20470;-70
2023/04/30 04:38:10;;;;;;;;;;;12.60;93.00;;;;;;5003030;28;19937;-70
2023/04/30 04:40:37;;;;;;;;;;;12.60;93.00;;;;;;5002455;28;19933;-69
2023/04/30 04:43:03;;;;;;;;;;;12.60;93.00;;;;;;5002596;28;19980;-69
2023/04/30 04:45:30;;;;;;;;;;;12.60;93.00;;;;;;5003779;28;19933;-69
2023/04/30 04:47:56;;;;;;;;;;;12.50;92.90;;;;;;5001979;28;19933;-70
2023/04/30 04:50:24;;;;;;;;;;;12.50;92.90;;;;;;5002423;28;19995;-69
2023/04/30 04:52:51;;;;;;;;;;;12.50;92.90;;;;;;5016834;28;20019;-69
2023/04/30 04:55:17;;;;;;;;;;;12.50;92.90;;;;;;5007229;28;19934;-69
2023/04/30 04:57:44;;;;;;;;;;;12.50;92.90;;;;;;4999965;28;19933;-68
2023/04/30 05:00:11;;;;;;;;;;;12.50;92.90;;;;;;5001425;28;20314;-70
2023/04/30 05:02:38;;;;;;;;;;;12.50;92.80;;;;;;5001936;28;20007;-69
2023/04/30 05:05:05;;;;;;;;;;;12.50;92.80;;;;;;5001822;28;19934;-69
2023/04/30 05:07:33;;;;;;;;;;;12.50;92.80;;;;;;5004720;28;19935;-69
2023/04/30 05:10:00;;;;;;;;;;;12.50;92.80;;;;;;5002636;28;19980;-69
2023/04/30 05:12:26;;;;;;;;;;;12.50;92.80;;;;;;5002161;28;19983;-69
2023/04/30 05:14:53;;;;;;;;;;;12.50;92.70;;;;;;5009598;28;20354;-69
2023/04/30 05:17:19;;;;;;;;;;;12.50;92.70;;;;;;4999877;28;19934;-68
2023/04/30 05:19:49;;;;;;;;;;;12.40;92.70;;;;;;4997085;28;20462;-68
2023/04/30 05:22:15;;;;;;;;;;;12.50;92.70;;;;;;4999421;28;20423;-68
2023/04/30 05:24:43;;;;;;;;;;;12.50;92.60;;;;;;5003600;28;19976;-69
2023/04/30 05:27:10;;;;;;;;;;;12.50;92.60;;;;;;4998548;28;19976;-70
2023/04/30 05:29:36;;;;;;;;;;;12.50;92.60;;;;;;5003433;28;19929;-70
2023/04/30 05:32:03;;;;;;;;;;;12.50;92.60;;;;;;5003694;28;19980;-69
2023/04/30 05:34:30;;;;;;;;;;;12.50;92.60;;;;;;5002639;28;19929;-69
2023/04/30 05:36:56;;;;;;;;;;;12.50;92.60;;;;;;5001489;28;20390;-69
2023/04/30 05:39:23;;;;;;;;;;;12.40;92.50;;;;;;5004559;28;19936;-69
2023/04/30 05:41:50;;;;;;;;;;;12.50;92.60;;;;;;5001906;28;19988;-69
2023/04/30 05:44:17;;;;;;;;;;;12.40;92.50;;;;;;5001725;28;19930;-69
2023/04/30 05:46:44;;;;;;;;;;;12.40;92.50;;;;;;5010964;28;20198;-69
2023/04/30 05:49:10;;;;;;;;;;;12.40;92.50;;;;;;5002048;28;19929;-69
2023/04/30 05:51:37;;;;;;;;;;;12.50;92.50;;;;;;5000969;28;19975;-69
2023/04/30 05:54:03;;;;;;;;;;;12.50;92.40;;;;;;5003941;28;19934;-69
2023/04/30 05:56:30;;;;;;;;;;;12.40;92.40;;;;;;5003378;28;20858;-68
2023/04/30 05:58:57;;;;;;;;;;;12.40;92.40;;;;;;5004062;28;19930;-69
2023/04/30 06:01:27;;;;;;;;;;;12.50;92.40;;;;;;5006795;28;20408;-69
2023/04/30 06:03:54;;;;;;;;;;;12.40;92.30;;;;;;5003682;28;20008;-69
2023/04/30 06:06:20;;;;;;;;;;;12.40;92.30;;;;;;5003947;28;19933;-69
2023/04/30 06:08:47;;;;;;;;;;;12.40;92.30;;;;;;5001779;28;20450;-69
2023/04/30 06:11:14;;;;;;;;;;;12.40;91.60;;;;;;4999398;28;20019;-68
2023/04/30 06:13:40;;;;;;;;;;;12.40;90.90;;;;;;4999664;28;19975;-68
2023/04/30 06:16:08;;;;;;;;;;;12.40;91.00;;;;;;5002805;28;19983;-69
2023/04/30 06:18:35;;;;;;;;;;;12.40;91.20;;;;;;4996241;28;19996;-68
2023/04/30 06:21:01;;;;;;;;;;;12.40;91.40;;;;;;5000173;28;19929;-69
2023/04/30 06:23:28;;;;;;;;;;;12.30;91.40;;;;;;5000984;28;19979;-68
2023/04/30 06:25:55;;;;;;;;;;;12.40;91.50;;;;;;5006280;28;20404;-68
2023/04/30 06:28:21;;;;;;;;;;;12.40;91.60;;;;;;4996838;28;19961;-69
2023/04/30 06:30:48;;;;;;;;;;;12.30;91.60;;;;;;5005950;28;20318;-68
2023/04/30 06:33:16;;;;;;;;;;;12.40;91.50;;;;;;4998689;28;20348;-71
2023/04/30 06:35:42;;;;;;;;;;;12.40;91.40;;;;;;5003276;28;19929;-71
2023/04/30 06:38:09;;;;;;;;;;;12.40;91.40;;;;;;5001678;28;19976;-71
2023/04/30 06:40:35;;;;;;;;;;;12.40;91.40;;;;;;5007051;28;19975;-70
2023/04/30 06:43:02;;;;;;;;;;;12.40;91.40;;;;;;5001731;28;20419;-70
2023/04/30 06:45:28;;;;;;;;;;;12.50;91.40;;;;;;5002415;28;19983;-70
2023/04/30 06:47:55;;;;;;;;;;;12.40;91.40;;;;;;5005454;28;19984;-71
2023/04/30 06:50:23;;;;;;;;;;;12.50;91.50;;;;;;4999408;28;20027;-71
2023/04/30 06:52:49;;;;;;;;;;;12.40;91.50;;;;;;5003572;28;19926;-71
2023/04/30 06:55:16;;;;;;;;;;;12.40;91.50;;;;;;5006469;28;19926;-70
2023/04/30 06:57:42;;;;;;;;;;;12.50;91.50;;;;;;4999034;28;20346;-70
2023/04/30 07:00:09;;;;;;;;;;;12.50;91.50;;;;;;5002645;28;19972;-70
2023/04/30 07:02:36;;;;;;;;;;;12.50;91.50;;;;;;5000941;28;19929;-70
2023/04/30 07:05:02;;;;;;;;;;;12.50;91.50;;;;;;4994871;28;19925;-70
2023/04/30 07:07:31;;;;;;;;;;;12.50;91.50;;;;;;5003959;28;19929;-71
2023/04/30 07:09:57;;;;;;;;;;;12.50;91.50;;;;;;5010624;28;19925;-71
2023/04/30 07:12:24;;;;;;;;;;;12.50;91.50;;;;;;5002103;28;19925;-71
2023/04/30 07:14:50;;;;;;;;;;;12.50;91.50;;;;;;5002547;28;19930;-70
2023/04/30 07:17:17;;;;;;;;;;;12.60;91.50;;;;;;5007328;28;19933;-71
2023/04/30 07:19:43;;;;;;;;;;;12.60;91.50;;;;;;4992135;28;19972;-71
2023/04/30 07:22:10;;;;;;;;;;;12.60;91.40;;;;;;5002727;28;20801;-71
2023/04/30 07:24:38;;;;;;;;;;;12.60;91.40;;;;;;5003555;28;19934;-71
2023/04/30 07:27:06;;;;;;;;;;;12.60;91.40;;;;;;4998759;28;19929;-70
2023/04/30 07:29:32;;;;;;;;;;;12.70;91.40;;;;;;5003058;28;19953;-71
2023/04/30 07:31:59;;;;;;;;;;;12.70;91.30;;;;;;5006917;28;19937;-70
2023/04/30 07:34:26;;;;;;;;;;;12.70;91.30;;;;;;4997285;28;20332;-71
2023/04/30 07:36:53;;;;;;;;;;;12.70;91.20;;;;;;5005793;28;19965;-71
2023/04/30 07:39:19;;;;;;;;;;;12.70;91.30;;;;;;5002551;28;20301;-71
2023/04/30 07:41:47;;;;;;;;;;;12.70;91.20;;;;;;5003587;28;19999;-70
2023/04/30 07:44:14;;;;;;;;;;;12.70;91.60;;;;;;4998845;28;19930;-71
2023/04/30 07:46:41;;;;;;;;;;;12.80;91.30;;;;;;4999110;28;19930;-70
2023/04/30 07:49:07;;;;;;;;;;;12.80;91.30;;;;;;4998640;28;19930;-70
2023/04/30 07:51:34;;;;;;;;;;;12.90;91.30;;;;;;4999113;28;20343;-70
2023/04/30 07:54:01;;;;;;;;;;;12.80;91.30;;;;;;5003557;28;20012;-71
2023/04/30 07:56:27;;;;;;;;;;;12.80;91.30;;;;;;5010825;28;19929;-71
2023/04/30 07:58:55;;;;;;;;;;;12.90;91.30;;;;;;4999617;28;19937;-70
2023/04/30 08:01:22;;;;;;;;;;;12.90;91.30;;;;;;4997240;28;20359;-71
2023/04/30 08:03:48;;;;;;;;;;;12.90;91.30;;;;;;5006070;28;19977;-70
2023/04/30 08:06:15;;;;;;;;;;;12.90;91.30;;;;;;5000870;28;19940;-71
2023/04/30 08:08:41;;;;;;;;;;;13.00;91.30;;;;;;5000564;28;19933;-70
2023/04/30 08:11:08;;;;;;;;;;;13.00;91.20;;;;;;5002639;28;19936;-70
2023/04/30 08:13:35;;;;;;;;;;;13.00;91.10;;;;;;5007387;28;20444;-70
2023/04/30 08:16:03;;;;;;;;;;;13.10;91.10;;;;;;5006848;28;20547;-71
2023/04/30 08:18:30;;;;;;;;;;;13.10;91.10;;;;;;5004406;28;20745;-71
2023/04/30 08:20:56;;;;;;;;;;;13.10;91.10;;;;;;5007502;28;19929;-71
2023/04/30 08:23:23;;;;;;;;;;;13.10;91.00;;;;;;5009515;28;19992;-70
2023/04/30 08:25:50;;;;;;;;;;;13.10;91.00;;;;;;5006513;28;20384;-71
2023/04/30 08:28:17;;;;;;;;;;;13.20;91.00;;;;;;5006307;28;19937;-70
2023/04/30 08:30:44;;;;;;;;;;;13.20;91.00;;;;;;5007613;28;20030;-71
2023/04/30 08:33:12;;;;;;;;;;;13.20;91.00;;;;;;5009789;28;20630;-71
2023/04/30 08:35:38;;;;;;;;;;;13.30;91.00;;;;;;5007799;28;19929;-71
2023/04/30 08:38:05;;;;;;;;;;;13.30;91.00;;;;;;5007703;28;19975;-70
2023/04/30 08:40:34;;;;;;;;;;;13.40;90.90;;;;;;5001350;28;19934;-71
2023/04/30 08:43:04;;;;;;;;;;;13.40;90.80;;;;;;5005075;28;19933;-71
2023/04/30 08:45:31;;;;;;;;;;;13.40;90.60;;;;;;5007265;28;20722;-71
2023/04/30 08:47:59;;;;;;;;;;;13.50;90.60;;;;;;5000007;28;20024;-72
2023/04/30 08:50:27;;;;;;;;;;;13.50;90.50;;;;;;5004553;28;19969;-71
2023/04/30 08:52:54;;;;;;;;;;;13.50;90.30;;;;;;5008302;28;19930;-71
2023/04/30 08:55:21;;;;;;;;;;;13.60;90.30;;;;;;5004815;28;20520;-71
2023/04/30 08:57:47;;;;;;;;;;;13.60;90.30;;;;;;5000037;28;19929;-71
2023/04/30 09:00:14;;;;;;;;;;;13.60;90.10;;;;;;5000862;28;19980;-71
2023/04/30 09:02:41;;;;;;;;;;;13.70;90.00;;;;;;5004806;28;19933;-71
2023/04/30 09:05:10;;;;;;;;;;;13.70;89.90;;;;;;4999123;28;19929;-71
2023/04/30 09:07:39;;;;;;;;;;;13.70;89.50;;;;;;4997836;28;20528;-70
2023/04/30 09:10:14;;;;;;;;;;;13.80;89.20;;;;;;5005873;28;19929;-70
2023/04/30 09:12:42;;;;;;;;;;;13.80;88.90;;;;;;5001275;28;20388;-70
2023/04/30 09:15:09;;;;;;;;;;;13.80;88.50;;;;;;4995555;28;20307;-71
2023/04/30 09:17:36;;;;;;;;;;;13.90;88.30;;;;;;5000528;28;20816;-70
2023/04/30 09:20:10;;;;;;;;;;;13.90;87.70;;;;;;5002981;28;20320;-70
2023/04/30 09:22:38;;;;;;;;;;;14.00;87.60;;;;;;5001425;28;19933;-70
2023/04/30 09:25:05;;;;;;;;;;;14.00;87.30;;;;;;5008950;28;19933;-71
2023/04/30 09:27:32;;;;;;;;;;;14.00;86.90;;;;;;4997187;28;19992;-71
2023/04/30 09:29:58;;;;;;;;;;;14.00;86.60;;;;;;5001693;28;19934;-71
2023/04/30 09:32:25;;;;;;;;;;;14.00;86.50;;;;;;5003002;28;19984;-71
2023/04/30 09:34:51;;;;;;;;;;;14.10;86.10;;;;;;5005809;28;19933;-71
2023/04/30 09:37:18;;;;;;;;;;;14.10;85.50;;;;;;4996890;28;19942;-71
2023/04/30 09:39:49;;;;;;;;;;;14.10;85.30;;;;;;5004460;28;19983;-70
2023/04/30 09:42:16;;;;;;;;;;;14.10;85.10;;;;;;5003032;28;19929;-70
2023/04/30 09:44:43;;;;;;;;;;;14.20;85.20;;;;;;5010549;28;20358;-71
2023/04/30 09:47:14;;;;;;;;;;;14.20;84.60;;;;;;5004764;28;19940;-71
2023/04/30 09:49:44;;;;;;;;;;;14.20;84.00;;;;;;4998706;28;19930;-71
2023/04/30 09:52:11;;;;;;;;;;;14.20;83.60;;;;;;5003279;28;19929;-70
2023/04/30 09:54:38;;;;;;;;;;;14.30;83.30;;;;;;4996140;28;19968;-70
2023/04/30 09:57:09;;;;;;;;;;;14.30;83.20;;;;;;5006093;28;21325;-70
2023/04/30 09:59:38;;;;;;;;;;;14.40;82.70;;;;;;5005518;28;19933;-70
2023/04/30 10:02:05;;;;;;;;;;;14.30;82.50;;;;;;4998030;28;19933;-71
2023/04/30 10:04:34;;;;;;;;;;;14.40;82.30;;;;;;5001190;28;19933;-71
2023/04/30 10:07:01;;;;;;;;;;;14.40;82.00;;;;;;5001659;28;19929;-70
2023/04/30 10:09:29;;;;;;;;;;;14.40;81.60;;;;;;5004844;28;19933;-71
2023/04/30 10:11:56;;;;;;;;;;;14.50;81.10;;;;;;4999732;28;19977;-71
2023/04/30 10:14:25;;;;;;;;;;;14.50;80.80;;;;;;5007805;28;19933;-71
2023/04/30 10:16:54;;;;;;;;;;;14.50;80.60;;;;;;5002735;28;20445;-71
2023/04/30 10:19:22;;;;;;;;;;;14.50;80.50;;;;;;5001152;28;19929;-71
2023/04/30 10:21:49;;;;;;;;;;;14.60;80.30;;;;;;5006462;28;19976;-71
2023/04/30 10:24:18;;;;;;;;;;;14.60;80.10;;;;;;5008043;28;19929;-71
2023/04/30 10:26:46;;;;;;;;;;;14.60;80.10;;;;;;5000869;28;19937;-71
2023/04/30 10:29:12;;;;;;;;;;;14.60;79.70;;;;;;4998958;28;20749;-71
2023/04/30 10:31:41;;;;;;;;;;;14.70;79.30;;;;;;5001743;28;19929;-71
2023/04/30 10:34:14;;;;;;;;;;;14.70;79.40;;;;;;5006611;28;19929;-71
2023/04/30 10:36:43;;;;;;;;;;;14.70;79.60;;;;;;5004211;28;20389;-71
2023/04/30 10:39:10;;;;;;;;;;;14.80;79.30;;;;;;5000132;28;19929;-70
2023/04/30 10:41:37;;;;;;;;;;;14.80;79.00;;;;;;5002849;28;20394;-71
2023/04/30 10:44:05;;;;;;;;;;;14.90;79.20;;;;;;5002302;28;20058;-71
2023/04/30 10:46:34;;;;;;;;;;;14.80;78.90;;;;;;4998122;28;19929;-74
2023/04/30 10:49:02;;;;;;;;;;;14.90;78.90;;;;;;4992872;28;19929;-75
2023/04/30 10:51:43;;;;;;;;;;;14.90;78.80;;;;;;4998036;28;20466;-73
2023/04/30 10:54:10;;;;;;;;;;;15.00;78.50;;;;;;4999970;28;19959;-73
2023/04/30 10:56:37;;;;;;;;;;;15.00;78.40;;;;;;4995813;28;19934;-73
2023/04/30 10:59:03;;;;;;;;;;;15.00;78.50;;;;;;4999280;28;19991;-73
2023/04/30 11:01:31;;;;;;;;;;;15.10;78.60;;;;;;4998806;28;19929;-73
2023/04/30 11:04:07;;;;;;;;;;;15.10;78.30;;;;;;5003002;28;19976;-73
2023/04/30 11:06:54;;;;;;;;;;;15.10;77.60;;;;;;5000460;28;19973;-74
2023/04/30 11:09:34;;;;;;;;;;;15.10;77.30;;;;;;4998668;28;19984;-73
2023/04/30 11:12:02;;;;;;;;;;;15.20;77.40;;;;;;4998379;28;20011;-73
2023/04/30 11:14:31;;;;;;;;;;;15.20;76.90;;;;;;4996015;28;19933;-73
2023/04/30 11:16:59;;;;;;;;;;;15.30;76.60;;;;;;5004717;28;19940;-73
2023/04/30 11:19:27;;;;;;;;;;;15.30;76.50;;;;;;4994763;28;20343;-73
2023/04/30 11:22:12;;;;;;;;;;;15.30;76.70;;;;;;5004792;28;20617;-73
2023/04/30 11:24:52;;;;;;;;;;;15.30;76.60;;;;;;5001524;28;19936;-73
2023/04/30 11:27:22;;;;;;;;;;;15.30;77.60;;;;;;4992379;28;19937;-73
2023/04/30 11:29:50;;;;;;;;;;;15.30;76.90;;;;;;5000596;28;19999;-73
2023/04/30 11:32:17;;;;;;;;;;;15.40;76.80;;;;;;4999560;28;20044;-73
2023/04/30 11:34:45;;;;;;;;;;;15.40;76.80;;;;;;4997506;28;19939;-73
2023/04/30 11:37:12;;;;;;;;;;;15.40;76.60;;;;;;5000506;28;19929;-73
2023/04/30 11:39:39;;;;;;;;;;;15.50;76.40;;;;;;5008458;28;19956;-73
2023/04/30 11:42:06;;;;;;;;;;;15.50;76.50;;;;;;5000148;28;20351;-73
2023/04/30 11:44:33;;;;;;;;;;;15.50;76.20;;;;;;4998992;28;19925;-73
2023/04/30 11:46:59;;;;;;;;;;;15.50;76.20;;;;;;5000164;28;19925;-73
2023/04/30 11:49:26;;;;;;;;;;;15.60;76.00;;;;;;4997323;28;19925;-73
2023/04/30 11:51:54;;;;;;;;;;;15.60;75.90;;;;;;5001007;28;19929;-74
2023/04/30 11:54:21;;;;;;;;;;;15.70;75.70;;;;;;4999247;28;19929;-73
2023/04/30 11:56:48;;;;;;;;;;;15.80;75.40;;;;;;4997605;28;20355;-74
2023/04/30 11:59:15;;;;;;;;;;;15.80;75.10;;;;;;4999755;28;19929;-76
2023/04/30 12:01:42;;;;;;;;;;;15.90;74.70;;;;;;4997795;28;20387;-74
2023/04/30 12:04:08;;;;;;;;;;;15.90;74.10;;;;;;5001741;28;19935;-73
2023/04/30 12:06:35;;;;;;;;;;;16.00;74.00;;;;;;4991339;28;19977;-74
2023/04/30 12:09:06;;;;;;;;;;;16.00;74.10;;;;;;4994198;28;19936;-73
2023/04/30 12:11:33;;;;;;;;;;;16.00;73.90;;;;;;5002809;28;19929;-74
2023/04/30 12:14:02;;;;;;;;;;;16.00;74.10;;;;;;5000947;28;19956;-73
2023/04/30 12:16:29;;;;;;;;;;;16.00;73.80;;;;;;4995935;28;19929;-73
2023/04/30 12:18:55;;;;;;;;;;;16.10;73.90;;;;;;5000902;28;19933;-73
2023/04/30 12:21:22;;;;;;;;;;;16.10;73.80;;;;;;4997504;28;19937;-73
2023/04/30 12:23:49;;;;;;;;;;;16.10;73.80;;;;;;4997237;28;19998;-74
2023/04/30 12:26:16;;;;;;;;;;;16.10;73.40;;;;;;4997283;28;19934;-74
2023/04/30 12:28:43;;;;;;;;;;;16.20;73.10;;;;;;4994165;28;19976;-71
2023/04/30 12:31:10;;;;;;;;;;;16.20;72.30;;;;;;4999018;28;20000;-70
2023/04/30 12:33:36;;;;;;;;;;;16.20;72.50;;;;;;4998177;28;20633;-71
2023/04/30 12:36:03;;;;;;;;;;;16.20;72.10;;;;;;5000878;28;19929;-70
2023/04/30 12:38:30;;;;;;;;;;;16.20;71.60;;;;;;4996132;28;20366;-70
2023/04/30 12:40:56;;;;;;;;;;;16.30;71.80;;;;;;5003923;28;19936;-71
2023/04/30 12:43:24;;;;;;;;;;;16.30;72.30;;;;;;5002995;28;19945;-70
2023/04/30 12:45:52;;;;;;;;;;;16.30;72.00;;;;;;5003447;28;19992;-70
2023/04/30 12:48:19;;;;;;;;;;;16.30;71.90;;;;;;4999835;28;19929;-71
2023/04/30 12:50:52;;;;;;;;;;;16.40;71.80;;;;;;5004200;28;20002;-71
2023/04/30 12:53:19;;;;;;;;;;;16.40;71.40;;;;;;5005689;28;19984;-71
2023/04/30 12:56:00;;;;;;;;;;;16.50;71.10;;;;;;5001082;28;20007;-71
2023/04/30 12:58:31;;;;;;;;;;;16.40;71.30;;;;;;4995264;28;19933;-70
2023/04/30 13:00:58;;;;;;;;;;;16.50;70.90;;;;;;5003801;28;20044;-71
2023/04/30 13:03:24;;;;;;;;;;;16.50;70.60;;;;;;4997618;28;19929;-71
2023/04/30 13:05:52;;;;;;;;;;;16.60;70.70;;;;;;5009401;28;20162;-70
2023/04/30 13:08:19;;;;;;;;;;;16.60;70.50;;;;;;5003616;28;19930;-70
2023/04/30 13:10:46;;;;;;;;;;;16.60;70.80;;;;;;5003241;28;19930;-70
2023/04/30 13:13:13;;;;;;;;;;;16.70;70.20;;;;;;5002651;28;20649;-71
2023/04/30 13:15:41;;;;;;;;;;;16.70;70.00;;;;;;5003031;28;19956;-71
2023/04/30 13:18:08;;;;;;;;;;;16.80;69.30;;;;;;5001483;28;20537;-71
2023/04/30 13:20:35;;;;;;;;;;;16.80;69.00;;;;;;4999700;28;19940;-71
2023/04/30 13:23:01;;;;;;;;;;;16.80;69.30;;;;;;5004047;28;19929;-70
2023/04/30 13:25:28;;;;;;;;;;;16.80;69.10;;;;;;5002343;28;19933;-71
2023/04/30 13:27:54;;;;;;;;;;;16.90;68.60;;;;;;5000354;28;19929;-72
2023/04/30 13:30:22;;;;;;;;;;;16.90;68.40;;;;;;5009468;28;19926;-71
2023/04/30 13:32:51;;;;;;;;;;;16.90;68.70;;;;;;5001349;28;19932;-71
2023/04/30 13:35:17;;;;;;;;;;;17.00;68.40;;;;;;5002180;28;20452;-71
2023/04/30 13:37:44;;;;;;;;;;;17.10;68.30;;;;;;5005563;28;19930;-71
2023/04/30 13:40:11;;;;;;;;;;;17.10;68.30;;;;;;5003015;28;20334;-71
2023/04/30 13:42:38;;;;;;;;;;;17.10;68.00;;;;;;5005538;28;20736;-71
2023/04/30 13:45:05;;;;;;;;;;;17.10;67.20;;;;;;5006381;28;19936;-71
2023/04/30 13:47:31;;;;;;;;;;;17.20;67.50;;;;;;5008694;28;19929;-71
2023/04/30 13:49:59;;;;;;;;;;;17.20;68.00;;;;;;4998652;28;19929;-71
2023/04/30 13:52:26;;;;;;;;;;;17.30;67.90;;;;;;5011166;28;19981;-71
2023/04/30 13:54:53;;;;;;;;;;;17.30;67.50;;;;;;5008923;28;19967;-70
2023/04/30 13:57:19;;;;;;;;;;;17.30;67.30;;;;;;5003318;28;19934;-70
2023/04/30 13:59:46;;;;;;;;;;;17.30;67.70;;;;;;5004104;28;19937;-71
2023/04/30 14:02:12;;;;;;;;;;;17.40;67.60;;;;;;5008012;28;19930;-71
2023/04/30 14:04:39;;;;;;;;;;;17.40;67.30;;;;;;5004787;28;19933;-71
2023/04/30 14:07:07;;;;;;;;;;;17.40;66.90;;;;;;5004511;28;19933;-71
2023/04/30 14:09:34;;;;;;;;;;;17.40;66.90;;;;;;5000494;28;20536;-71
2023/04/30 14:12:01;;;;;;;;;;;17.50;66.90;;;;;;5001223;28;19930;-71
2023/04/30 14:14:28;;;;;;;;;;;17.50;66.70;;;;;;5008442;28;20395;-70
2023/04/30 14:16:54;;;;;;;;;;;17.60;66.20;;;;;;5003316;28;19929;-71
2023/04/30 14:19:21;;;;;;;;;;;17.70;65.90;;;;;;5002814;28;19933;-71